Aérodrome :
LOGIN :

S'inscrire | Disclaimer

   EN    FR    IT 

 










Légende :    VFR   VFR Marginal   IFR   IFR Intensif   IFR Très Intensif
Visi : 
Plafond : 
>= 8 km
>= 3000ft
5 à 8 km
1000 à 3000 ft
1500m à 5 km
500 à 1000 ft
800 à 1500m
200 à 500 ft
< 800m
< 200 ft
Symboles :   Orages  Brouillard  Fortes neiges  Fortes précipitations  Vent > 20 kt
SIGMETs :   Divers  Orages  Givrage  Turbulence  Onde Orograph.  Cendres Volcan.






- Altitude de l'aérodrome : 1197 ft
- Code IATA : SPM


ETAD - Spangdahlem Ab

DERNIER METAR :
  • 101156Z AUTO 18008KT 9999 OVC007 08/08 A2988 RMK AO2 SLP117 60014 70064 T00790079 10080 20070 58009 $

METARs EXPIRÉS :
  • 101111Z AUTO 17006KT 9999 OVC006 08/08 A2989 RMK AO2 SLP120 $
  • 101056Z AUTO 17006KT 9999 OVC005 08/08 A2989 RMK AO2 RAE35DZB35E38 SLP120 P0001 T00770077 $
  • 101038Z AUTO 18008KT 9999 OVC005 07/07 A2990 RMK AO2 RAE35DZB35E38 SLP124 $
  • 101011Z AUTO 19006KT 9999 -RA OVC005 07/07 A2991 RMK AO2 CIG 003V005 SLP127 $
  • 100956Z AUTO 19005KT 6000 -RA BR BKN003 OVC007 07/07 A2991 RMK AO2 BKN V OVC CIG 002 RWY24 SLP127 P0003 T00730073 $
  • 100941Z AUTO 12003KT 4400 -RA BR OVC003 07/07 A2991 RMK AO2 VIS 4400V6000 OVC V BKN SLP127 $
  • 100926Z AUTO 11003KT 6000 -RA BR BKN004 OVC017 07/07 A2991 RMK AO2 CIG 004V017 BKN V SCT SLP127 $
  • 100856Z AUTO 00000KT 9999 -RA SCT008 SCT012 OVC022 08/08 A2991 RMK AO2 CIG 012V022 CIG 018 RWY05 CIG 014 RWY24 SLP125 P0003 60010 T00750075 50005 $

TAF AMD TAF ETAD
Valide du 10 à 11h jusqu'au 11 à 12h UTC


101120Z 1011/1112 22004KT 8000 -RA OVC006 620609 QNH2982INS
TEMPO 1011/1014 OVC004
BECMG 1014/1015 20008KT 9999 NSW OVC010 620609 QNH2978INS
BECMG 1019/1020 18008KT 9000 -SHRA OVC010 610609 QNH2974INS
BECMG 1101/1102 20005KT 9999 NSW OVC005 620609 QNH2974INS
BECMG 1105/1106 20010KT 8000 -RA OVC007 620609 QNH2975INS TX10/1014Z TN08/1011Z



MET'MAP, la Météo Aéronautique d'un coup d'oeil ! - Copyright ORBIFLY Décembre 2007 - Disclaimer

ORBIFLY MET'MAP TEAM :

Programmation & Développement : Alexandra Zaïnal
Sur une idée originale de : Baudouin d'Aumeries
Assistance à la programmation : Marc-Olivier Méhu
Soutien technique & logistique : Manuel Goepfert

Contact : metmap@orbifly.com




SOURCES & CREDITS :

   NOAA